Time;durP1;ratioP1;P1;durP2;ratioP2;P2;SDS_P1;SDS_P2;PMS_P1;PMS_P2;Temp;Humidity;BMP_temperature;BMP_pressure;BME280_temperature;BME280_humidity;BME280_pressure;Samples;Min_cycle;Max_cycle;Signal;HPM_P1;HPM_P2
2022/07/29 00:01:47;;;;;;;58.28;7.10;;;;;;;;;;5068977;28;20052;-70
2022/07/29 00:04:13;;;;;;;51.25;6.00;;;;;;;;;;5073616;28;20487;-72
2022/07/29 00:06:41;;;;;;;50.20;6.38;;;;;;;;;;5068876;28;20128;-72
2022/07/29 00:09:07;;;;;;;33.95;5.63;;;;;;;;;;5069095;28;20417;-71
2022/07/29 00:11:34;;;;;;;12.20;3.70;;;;;;;;;;5068503;28;20101;-73
2022/07/29 00:14:01;;;;;;;30.38;5.20;;;;;;;;;;5067423;28;20041;-72
2022/07/29 00:16:27;;;;;;;72.90;7.18;;;;;;;;;;5070690;28;20422;-71
2022/07/29 00:18:54;;;;;;;50.83;5.97;;;;;;;;;;5070886;28;20069;-71
2022/07/29 00:21:20;;;;;;;48.10;5.80;;;;;;;;;;5068075;28;20455;-71
2022/07/29 00:23:47;;;;;;;57.00;6.32;;;;;;;;;;5067219;28;20136;-66
2022/07/29 00:26:13;;;;;;;35.08;5.35;;;;;;;;;;5068352;28;20086;-66
2022/07/29 00:28:40;;;;;;;24.17;4.38;;;;;;;;;;5069052;28;20028;-66
2022/07/29 00:31:07;;;;;;;54.13;6.93;;;;;;;;;;5072225;28;20083;-66
2022/07/29 00:33:34;;;;;;;15.23;5.93;;;;;;;;;;5068237;28;20048;-66
2022/07/29 00:36:00;;;;;;;23.05;5.90;;;;;;;;;;5066556;28;20052;-66
2022/07/29 00:38:27;;;;;;;48.85;7.53;;;;;;;;;;5067499;28;20071;-66
2022/07/29 00:40:53;;;;;;;27.88;5.70;;;;;;;;;;5068436;28;20033;-66
2022/07/29 00:43:20;;;;;;;46.55;6.72;;;;;;;;;;5071372;28;20111;-66
2022/07/29 00:45:47;;;;;;;51.80;7.68;;;;;;;;;;5069090;28;20044;-71
2022/07/29 00:48:13;;;;;;;48.28;7.63;;;;;;;;;;5068367;28;20119;-70
2022/07/29 00:50:40;;;;;;;19.42;5.50;;;;;;;;;;5067813;28;20040;-69
2022/07/29 00:53:07;;;;;;;51.38;8.00;;;;;;;;;;5067692;28;20100;-69
2022/07/29 00:55:34;;;;;;;74.60;10.43;;;;;;;;;;5068765;28;20051;-69
2022/07/29 00:58:01;;;;;;;43.92;7.82;;;;;;;;;;5070968;28;20127;-70
2022/07/29 01:00:28;;;;;;;60.47;7.28;;;;;;;;;;5067664;28;20057;-73
2022/07/29 01:02:55;;;;;;;27.88;6.03;;;;;;;;;;5067351;28;20036;-73
2022/07/29 01:05:22;;;;;;;42.90;7.82;;;;;;;;;;5067261;28;20040;-73
2022/07/29 01:07:51;;;;;;;61.17;7.78;;;;;;;;;;5066928;28;20044;-73
2022/07/29 01:10:18;;;;;;;24.42;5.68;;;;;;;;;;5072054;28;20059;-72
2022/07/29 01:12:47;;;;;;;30.02;5.88;;;;;;;;;;5068276;28;20151;-74
2022/07/29 01:15:14;;;;;;;85.82;8.73;;;;;;;;;;5067130;28;20040;-73
2022/07/29 01:17:59;;;;;;;35.58;6.00;;;;;;;;;;5067270;28;20042;-73
2022/07/29 01:20:37;;;;;;;59.35;7.18;;;;;;;;;;5067055;28;20498;-73
2022/07/29 01:23:10;;;;;;;28.52;5.97;;;;;;;;;;5066738;28;20527;-74
2022/07/29 01:25:49;;;;;;;41.88;6.30;;;;;;;;;;5067948;28;23015;-71
2022/07/29 01:28:40;;;;;;;52.25;7.03;;;;;;;;;;5067891;28;20510;-76
2022/07/29 01:31:09;;;;;;;50.65;7.53;;;;;;;;;;5070905;28;20060;-74
2022/07/29 01:33:50;;;;;;;58.00;7.80;;;;;;;;;;5071365;28;20090;-74
2022/07/29 01:36:25;;;;;;;58.53;8.20;;;;;;;;;;5068113;28;20395;-72
2022/07/29 01:38:59;;;;;;;13.50;5.05;;;;;;;;;;5066931;28;20405;-72
2022/07/29 01:41:28;;;;;;;51.78;7.43;;;;;;;;;;5066570;28;20047;-71
2022/07/29 01:43:57;;;;;;;25.35;6.28;;;;;;;;;;5067053;28;20123;-73
2022/07/29 01:46:43;;;;;;;70.65;8.15;;;;;;;;;;5070059;28;20125;-73
2022/07/29 01:49:18;;;;;;;37.33;6.63;;;;;;;;;;5071062;28;20037;-71
2022/07/29 01:51:48;;;;;;;19.15;4.95;;;;;;;;;;5067869;28;20044;-68
2022/07/29 01:54:26;;;;;;;54.63;6.95;;;;;;;;;;5067404;28;20127;-67
2022/07/29 01:56:55;;;;;;;35.25;5.78;;;;;;;;;;5065769;28;20115;-67
2022/07/29 01:59:23;;;;;;;69.95;7.13;;;;;;;;;;5068662;28;20045;-68
2022/07/29 02:01:50;;;;;;;74.68;8.02;;;;;;;;;;5066258;28;20070;-68
2022/07/29 02:04:20;;;;;;;37.67;5.75;;;;;;;;;;5070648;28;20514;-68
2022/07/29 02:06:57;;;;;;;31.52;5.60;;;;;;;;;;5071249;28;20036;-67
2022/07/29 02:09:25;;;;;;;24.00;5.03;;;;;;;;;;5061997;28;20115;-67
2022/07/29 02:11:53;;;;;;;27.67;4.95;;;;;;;;;;5067053;28;20524;-67
2022/07/29 02:14:20;;;;;;;34.67;5.53;;;;;;;;;;5065239;28;20040;-67
2022/07/29 02:16:49;;;;;;;16.27;5.50;;;;;;;;;;5067004;28;20052;-68
2022/07/29 02:19:17;;;;;;;31.85;6.05;;;;;;;;;;5066885;28;20119;-68
2022/07/29 02:21:44;;;;;;;51.05;7.00;;;;;;;;;;5066513;28;20048;-69
2022/07/29 02:24:11;;;;;;;21.25;5.60;;;;;;;;;;5066445;28;20064;-68
2022/07/29 02:26:40;;;;;;;35.50;6.00;;;;;;;;;;5066339;28;20036;-68
2022/07/29 02:29:08;;;;;;;34.85;6.68;;;;;;;;;;5070602;28;20059;-69
2022/07/29 02:31:36;;;;;;;44.20;7.72;;;;;;;;;;5067775;28;20135;-69
2022/07/29 02:34:04;;;;;;;63.53;7.75;;;;;;;;;;5069364;28;20045;-68
2022/07/29 02:36:31;;;;;;;21.23;6.18;;;;;;;;;;5066502;28;20120;-68
2022/07/29 02:39:00;;;;;;;33.35;6.63;;;;;;;;;;5070953;28;20040;-69
2022/07/29 02:41:56;;;;;;;57.03;7.95;;;;;;;;;;5070143;28;20506;-69
2022/07/29 02:44:24;;;;;;;30.55;6.53;;;;;;;;;;5053472;28;20053;-69
2022/07/29 02:46:53;;;;;;;60.10;8.05;;;;;;;;;;5070019;28;20116;-71
2022/07/29 02:49:25;;;;;;;44.47;6.95;;;;;;;;;;5074616;28;20045;-71
2022/07/29 02:51:58;;;;;;;31.77;5.75;;;;;;;;;;5071974;28;20094;-71
2022/07/29 02:54:44;;;;;;;43.38;6.55;;;;;;;;;;5069875;28;20445;-71
2022/07/29 02:57:18;;;;;;;88.45;8.25;;;;;;;;;;5051251;28;20138;-71
2022/07/29 02:59:44;;;;;;;;;;;;;;;;;;5051265;28;20052;-71
2022/07/29 03:02:12;;;;;;;23.98;5.43;;;;;;;;;;5052025;28;20019;-72
2022/07/29 03:04:41;;;;;;;53.35;6.40;;;;;;;;;;5051512;28;20723;-72
2022/07/29 03:07:08;;;;;;;18.60;4.05;;;;;;;;;;5052440;28;20049;-72
2022/07/29 03:09:35;;;;;;;26.77;5.35;;;;;;;;;;5051496;28;20131;-70
2022/07/29 03:12:03;;;;;;;74.13;7.63;;;;;;;;;;5051679;28;20065;-69
2022/07/29 03:14:31;;;;;;;25.75;5.80;;;;;;;;;;5051670;28;20423;-69
2022/07/29 03:16:58;;;;;;;41.38;6.25;;;;;;;;;;5050805;28;20124;-70
2022/07/29 03:19:25;;;;;;;76.78;8.55;;;;;;;;;;5051865;28;20411;-70
2022/07/29 03:21:52;;;;;;;34.75;6.22;;;;;;;;;;5051592;28;20406;-70
2022/07/29 03:24:25;;;;;;;28.55;6.05;;;;;;;;;;5050506;28;20494;-70
2022/07/29 03:26:52;;;;;;;23.65;6.80;;;;;;;;;;5051301;28;20044;-71
2022/07/29 03:29:19;;;;;;;56.15;8.00;;;;;;;;;;5051036;28;20151;-71
2022/07/29 03:31:45;;;;;;;38.55;6.53;;;;;;;;;;5047035;28;20463;-70
2022/07/29 03:34:13;;;;;;;31.75;5.95;;;;;;;;;;5032708;28;20077;-74
2022/07/29 03:36:40;;;;;;;47.67;7.07;;;;;;;;;;5032283;28;20065;-72
2022/07/29 03:39:08;;;;;;;28.05;6.10;;;;;;;;;;5028173;28;20073;-69
2022/07/29 03:41:36;;;;;;;57.97;8.15;;;;;;;;;;5032400;28;20041;-70
2022/07/29 03:44:03;;;;;;;54.15;7.88;;;;;;;;;;5032070;28;20125;-68
2022/07/29 03:46:31;;;;;;;44.00;6.72;;;;;;;;;;5031969;28;20065;-73
2022/07/29 03:49:01;;;;;;;24.17;5.70;;;;;;;;;;5031303;28;20065;-70
2022/07/29 03:51:27;;;;;;;23.75;5.55;;;;;;;;;;5032256;28;20151;-76
2022/07/29 03:54:00;;;;;;;42.15;6.25;;;;;;;;;;5031684;28;20570;-76
2022/07/29 03:56:37;;;;;;;27.80;5.72;;;;;;;;;;5037557;28;20034;-82
2022/07/29 03:59:03;;;;;;;29.63;5.03;;;;;;;;;;5039960;28;20069;-81
2022/07/29 04:01:32;;;;;;;67.57;7.35;;;;;;;;;;5033447;28;20042;-75
2022/07/29 04:04:00;;;;;;;50.05;5.88;;;;;;;;;;5033678;28;20132;-75
2022/07/29 04:06:26;;;;;;;23.90;4.57;;;;;;;;;;5032031;28;20037;-76
2022/07/29 04:08:53;;;;;;;48.53;6.65;;;;;;;;;;5031852;28;20055;-74
2022/07/29 04:11:19;;;;;;;25.00;5.20;;;;;;;;;;5032359;28;20056;-75
2022/07/29 04:13:46;;;;;;;36.80;5.53;;;;;;;;;;5031826;28;20117;-70
2022/07/29 04:16:12;;;;;;;45.05;5.60;;;;;;;;;;5033379;28;20411;-71
2022/07/29 04:18:39;;;;;;;26.60;4.32;;;;;;;;;;5031810;28;20041;-70
2022/07/29 04:21:06;;;;;;;28.20;4.40;;;;;;;;;;5032272;28;20084;-70
2022/07/29 04:23:33;;;;;;;38.70;4.75;;;;;;;;;;5031182;28;20043;-70
2022/07/29 04:26:00;;;;;;;50.60;5.95;;;;;;;;;;5031898;28;20585;-70
2022/07/29 04:28:27;;;;;;;60.90;6.60;;;;;;;;;;5031294;28;20128;-70
2022/07/29 04:30:54;;;;;;;37.83;5.75;;;;;;;;;;5040164;28;20127;-71
2022/07/29 04:33:21;;;;;;;34.25;5.60;;;;;;;;;;5068231;28;20049;-72
2022/07/29 04:35:50;;;;;;;25.08;5.30;;;;;;;;;;5068458;28;20056;-72
2022/07/29 04:38:20;;;;;;;49.08;6.28;;;;;;;;;;5067954;28;20056;-75
2022/07/29 04:40:47;;;;;;;21.15;4.68;;;;;;;;;;5068764;28;20029;-75
2022/07/29 04:43:16;;;;;;;15.73;4.93;;;;;;;;;;5072604;28;20135;-77
2022/07/29 04:45:48;;;;;;;24.33;3.78;;;;;;;;;;5069053;28;20275;-76
2022/07/29 04:48:15;;;;;;;19.27;3.22;;;;;;;;;;5072107;28;20036;-75
2022/07/29 04:50:44;;;;;;;36.15;4.35;;;;;;;;;;5067706;28;20067;-71
2022/07/29 04:53:10;;;;;;;22.38;3.17;;;;;;;;;;5067613;28;20411;-70
2022/07/29 04:55:37;;;;;;;89.80;6.95;;;;;;;;;;5068032;28;20083;-70
2022/07/29 04:58:04;;;;;;;35.03;4.00;;;;;;;;;;5070435;28;20488;-69
2022/07/29 05:00:31;;;;;;;12.00;2.20;;;;;;;;;;5066726;28;20048;-74
2022/07/29 05:02:59;;;;;;;15.27;2.42;;;;;;;;;;5067634;28;20530;-72
2022/07/29 05:05:25;;;;;;;30.38;3.30;;;;;;;;;;5067521;28;20037;-70
2022/07/29 05:07:52;;;;;;;27.00;3.20;;;;;;;;;;5067491;28;20514;-70
2022/07/29 05:10:19;;;;;;;44.88;3.95;;;;;;;;;;5072401;28;20139;-72
2022/07/29 05:12:45;;;;;;;27.45;3.17;;;;;;;;;;5068431;28;20119;-71
2022/07/29 05:15:12;;;;;;;24.02;2.78;;;;;;;;;;5067960;28;20172;-71
2022/07/29 05:17:38;;;;;;;24.05;2.95;;;;;;;;;;5067723;28;20542;-71
2022/07/29 05:20:05;;;;;;;22.95;2.67;;;;;;;;;;5067743;28;20600;-70
2022/07/29 05:22:32;;;;;;;57.63;4.93;;;;;;;;;;5070333;28;20051;-77
2022/07/29 05:24:58;;;;;;;25.20;2.58;;;;;;;;;;5069305;28;20046;-70
2022/07/29 05:27:30;;;;;;;17.20;2.22;;;;;;;;;;5067189;28;20036;-70
2022/07/29 05:29:57;;;;;;;15.88;1.95;;;;;;;;;;5067357;28;20067;-68
2022/07/29 05:32:24;;;;;;;49.15;4.18;;;;;;;;;;5066717;28;20143;-70
2022/07/29 05:34:50;;;;;;;30.95;3.33;;;;;;;;;;5068332;28;20041;-70
2022/07/29 05:37:20;;;;;;;42.15;3.75;;;;;;;;;;5071347;28;20040;-70
2022/07/29 05:39:47;;;;;;;9.07;1.83;;;;;;;;;;5067621;28;20469;-70
2022/07/29 05:42:21;;;;;;;47.05;4.15;;;;;;;;;;5066348;28;20116;-70
2022/07/29 05:44:48;;;;;;;28.63;3.33;;;;;;;;;;5071888;28;20040;-70
2022/07/29 05:47:14;;;;;;;16.33;2.20;;;;;;;;;;5067068;28;20068;-67
2022/07/29 05:49:41;;;;;;;39.78;3.45;;;;;;;;;;5068779;28;20519;-67
2022/07/29 05:52:08;;;;;;;9.32;2.25;;;;;;;;;;5070314;28;20571;-69
2022/07/29 05:54:35;;;;;;;45.47;3.67;;;;;;;;;;5066658;28;20041;-71
2022/07/29 05:57:02;;;;;;;54.78;4.47;;;;;;;;;;5065796;28;20044;-71
2022/07/29 05:59:29;;;;;;;22.30;2.45;;;;;;;;;;5068040;28;20035;-71
2022/07/29 06:01:56;;;;;;;27.63;2.90;;;;;;;;;;5067113;28;20112;-69
2022/07/29 06:04:23;;;;;;;56.10;4.20;;;;;;;;;;5070424;28;20601;-65
2022/07/29 06:06:50;;;;;;;27.10;2.40;;;;;;;;;;5072757;28;20052;-70
2022/07/29 06:09:19;;;;;;;52.05;4.20;;;;;;;;;;5067886;28;20534;-68
2022/07/29 06:11:45;;;;;;;65.32;4.75;;;;;;;;;;5067182;28;20127;-69
2022/07/29 06:14:12;;;;;;;15.68;2.28;;;;;;;;;;5067833;28;20094;-68
2022/07/29 06:16:39;;;;;;;37.83;3.50;;;;;;;;;;5068414;28;20032;-68
2022/07/29 06:19:06;;;;;;;40.42;3.40;;;;;;;;;;5070782;28;20040;-68
2022/07/29 06:21:33;;;;;;;13.75;1.83;;;;;;;;;;5067921;28;20502;-69
2022/07/29 06:24:04;;;;;;;25.45;2.17;;;;;;;;;;5067524;28;20063;-68
2022/07/29 06:26:30;;;;;;;55.83;4.30;;;;;;;;;;5080679;28;20076;-69
2022/07/29 06:29:03;;;;;;;76.25;5.38;;;;;;;;;;5063884;28;20698;-68
2022/07/29 06:31:29;;;;;;;37.38;3.22;;;;;;;;;;5072514;28;20127;-69
2022/07/29 06:33:56;;;;;;;41.17;3.53;;;;;;;;;;5067396;28;20044;-68
2022/07/29 06:36:22;;;;;;;33.65;3.17;;;;;;;;;;5066108;28;20108;-69
2022/07/29 06:38:50;;;;;;;27.20;2.42;;;;;;;;;;5065410;28;20607;-69
2022/07/29 06:41:17;;;;;;;70.38;5.13;;;;;;;;;;5066159;28;20090;-69
2022/07/29 06:43:45;;;;;;;60.40;4.85;;;;;;;;;;5067855;28;20102;-69
2022/07/29 06:46:20;;;;;;;9.85;1.60;;;;;;;;;;5067115;28;20045;-69
2022/07/29 06:48:47;;;;;;;29.67;2.65;;;;;;;;;;5066347;28;20510;-69
2022/07/29 06:51:16;;;;;;;20.23;2.25;;;;;;;;;;5066291;28;20056;-69
2022/07/29 06:53:48;;;;;;;34.83;3.17;;;;;;;;;;5065316;28;20078;-68
2022/07/29 06:56:29;;;;;;;32.58;3.08;;;;;;;;;;5065468;28;20032;-69
2022/07/29 06:58:55;;;;;;;36.17;3.03;;;;;;;;;;5064517;28;20116;-69
2022/07/29 07:01:22;;;;;;;33.38;3.30;;;;;;;;;;5070059;28;20052;-69
2022/07/29 07:03:48;;;;;;;10.80;1.83;;;;;;;;;;5070531;28;20094;-69
2022/07/29 07:06:16;;;;;;;27.73;2.88;;;;;;;;;;5066124;28;20561;-69
2022/07/29 07:08:42;;;;;;;52.42;4.32;;;;;;;;;;5066634;28;20094;-69
2022/07/29 07:11:09;;;;;;;13.43;2.17;;;;;;;;;;5065929;28;20127;-69
2022/07/29 07:13:35;;;;;;;33.40;3.45;;;;;;;;;;5069524;28;20510;-69
2022/07/29 07:16:02;;;;;;;79.22;5.70;;;;;;;;;;5068168;28;20052;-68
2022/07/29 07:18:30;;;;;;;15.10;2.05;;;;;;;;;;5066269;28;20056;-70
2022/07/29 07:20:56;;;;;;;119.93;8.25;;;;;;;;;;5066693;28;20036;-69
2022/07/29 07:23:23;;;;;;;32.28;2.97;;;;;;;;;;5067499;28;20067;-69
2022/07/29 07:25:49;;;;;;;13.93;1.83;;;;;;;;;;5070451;28;20037;-69
2022/07/29 07:28:16;;;;;;;38.40;3.20;;;;;;;;;;5073730;28;20422;-69
2022/07/29 07:30:43;;;;;;;60.28;4.57;;;;;;;;;;5069119;28;20461;-68
2022/07/29 07:33:10;;;;;;;38.20;3.92;;;;;;;;;;5069925;28;20475;-68
2022/07/29 07:35:36;;;;;;;23.80;2.60;;;;;;;;;;5065720;28;20041;-66
2022/07/29 07:38:03;;;;;;;46.53;3.92;;;;;;;;;;5069703;28;20110;-70
2022/07/29 07:40:29;;;;;;;24.05;2.60;;;;;;;;;;5073323;28;20119;-67
2022/07/29 07:42:56;;;;;;;11.18;1.83;;;;;;;;;;5070871;28;20064;-67
2022/07/29 07:45:23;;;;;;;30.45;3.05;;;;;;;;;;5070025;28;20111;-68
2022/07/29 07:47:53;;;;;;;33.45;3.15;;;;;;;;;;5069271;28;20383;-73
2022/07/29 07:50:19;;;;;;;17.60;2.20;;;;;;;;;;5069165;28;20124;-69
2022/07/29 07:52:47;;;;;;;41.92;3.63;;;;;;;;;;5070571;28;20045;-69
2022/07/29 07:55:14;;;;;;;24.50;2.40;;;;;;;;;;5073290;28;20059;-69
2022/07/29 07:57:40;;;;;;;44.38;3.78;;;;;;;;;;5069176;28;20174;-69
2022/07/29 08:00:07;;;;;;;55.75;4.38;;;;;;;;;;5068096;28;20440;-69
2022/07/29 08:02:38;;;;;;;13.30;1.75;;;;;;;;;;5068838;28;20106;-69
2022/07/29 08:05:06;;;;;;;22.02;2.63;;;;;;;;;;5068808;28;20041;-69
2022/07/29 08:07:38;;;;;;;;;;;;;;;;;;5071791;28;20048;-69
2022/07/29 08:10:05;;;;;;;24.45;2.47;;;;;;;;;;5069760;28;19974;-69
2022/07/29 08:12:31;;;;;;;106.10;9.43;;;;;;;;;;5068815;28;20066;-70
2022/07/29 08:14:58;;;;;;;54.95;4.43;;;;;;;;;;5070799;28;20070;-69
2022/07/29 08:17:25;;;;;;;63.42;4.85;;;;;;;;;;5068699;28;20198;-69
2022/07/29 08:19:51;;;;;;;77.45;5.80;;;;;;;;;;5067371;28;20115;-69
2022/07/29 08:22:18;;;;;;;77.03;5.97;;;;;;;;;;5070371;28;20101;-69
2022/07/29 08:25:03;;;;;;;40.38;3.38;;;;;;;;;;5068816;28;20050;-69
2022/07/29 08:27:30;;;;;;;39.78;3.55;;;;;;;;;;5066683;28;20135;-69
2022/07/29 08:30:09;;;;;;;39.15;3.50;;;;;;;;;;5068555;28;20041;-69
2022/07/29 08:32:37;;;;;;;27.30;2.58;;;;;;;;;;5067013;28;20199;-69
2022/07/29 08:35:19;;;;;;;8.07;1.83;;;;;;;;;;5067080;28;20667;-69
2022/07/29 08:37:46;;;;;;;24.52;2.72;;;;;;;;;;5069423;28;20059;-69
2022/07/29 08:40:13;;;;;;;59.90;4.72;;;;;;;;;;5071562;28;20127;-69
2022/07/29 08:42:40;;;;;;;11.48;1.92;;;;;;;;;;5068200;28;20042;-69
2022/07/29 08:45:07;;;;;;;285.70;23.77;;;;;;;;;;5067886;28;20064;-69
2022/07/29 08:47:38;;;;;;;52.67;4.47;;;;;;;;;;5068398;28;20036;-69
2022/07/29 08:50:05;;;;;;;35.40;3.38;;;;;;;;;;5069262;28;20064;-69
2022/07/29 08:52:35;;;;;;;33.88;2.97;;;;;;;;;;5071352;28;20048;-69
2022/07/29 08:55:02;;;;;;;22.30;2.53;;;;;;;;;;5104831;28;20048;-69
2022/07/29 08:57:29;;;;;;;6.38;1.25;;;;;;;;;;5068142;28;20041;-69
2022/07/29 08:59:59;;;;;;;31.73;3.00;;;;;;;;;;5068943;28;20036;-68
2022/07/29 09:02:39;;;;;;;28.38;3.20;;;;;;;;;;5067765;28;20459;-69
2022/07/29 09:05:06;;;;;;;13.30;2.13;;;;;;;;;;5067615;28;20384;-69
2022/07/29 09:07:34;;;;;;;48.55;4.15;;;;;;;;;;5070653;28;20048;-69
2022/07/29 09:10:01;;;;;;;8.13;1.80;;;;;;;;;;5071537;28;20808;-69
2022/07/29 09:12:29;;;;;;;21.40;2.63;;;;;;;;;;5067746;28;20044;-69
2022/07/29 09:15:00;;;;;;;38.33;3.55;;;;;;;;;;5067461;28;20051;-69
2022/07/29 09:17:39;;;;;;;17.73;2.63;;;;;;;;;;5068189;28;20052;-69
2022/07/29 09:20:10;;;;;;;51.25;3.58;;;;;;;;;;5067147;28;20049;-69
2022/07/29 09:22:37;;;;;;;54.13;4.65;;;;;;;;;;5070295;28;20051;-69
2022/07/29 09:25:07;;;;;;;5.43;1.65;;;;;;;;;;5070083;28;20044;-69
2022/07/29 09:27:34;;;;;;;51.13;4.30;;;;;;;;;;5067190;28;20045;-69
2022/07/29 09:30:03;;;;;;;28.23;2.45;;;;;;;;;;5066751;28;20123;-69
2022/07/29 09:32:30;;;;;;;33.17;3.05;;;;;;;;;;5071205;28;20053;-69
2022/07/29 09:35:16;;;;;;;46.90;4.03;;;;;;;;;;5067000;28;20036;-69
2022/07/29 09:37:43;;;;;;;75.82;5.53;;;;;;;;;;5067109;28;20094;-68
2022/07/29 09:40:13;;;;;;;37.35;3.33;;;;;;;;;;5070500;28;20064;-69
2022/07/29 09:42:40;;;;;;;25.05;2.20;;;;;;;;;;5067129;28;20047;-69
2022/07/29 09:45:06;;;;;;;5.35;1.40;;;;;;;;;;5065943;28;20523;-68
2022/07/29 09:47:40;;;;;;;31.50;3.17;;;;;;;;;;5066465;28;20067;-69
2022/07/29 09:50:07;;;;;;;11.90;1.88;;;;;;;;;;5067139;28;20914;-68
2022/07/29 09:52:43;;;;;;;38.83;3.35;;;;;;;;;;5070039;28;20520;-68
2022/07/29 09:55:10;;;;;;;43.03;3.47;;;;;;;;;;5069865;28;20446;-69
2022/07/29 09:57:44;;;;;;;190.77;14.75;;;;;;;;;;5066949;28;20055;-69
2022/07/29 10:00:12;;;;;;;23.67;2.92;;;;;;;;;;5066979;28;20550;-68
2022/07/29 10:02:40;;;;;;;10.15;2.33;;;;;;;;;;5066740;28;20123;-68
2022/07/29 10:05:15;;;;;;;12.75;2.10;;;;;;;;;;5066816;28;20033;-68
2022/07/29 10:07:43;;;;;;;38.58;3.90;;;;;;;;;;5071040;28;20044;-68
2022/07/29 10:10:10;;;;;;;34.10;2.85;;;;;;;;;;5071876;28;20037;-68
2022/07/29 10:12:52;;;;;;;52.63;4.22;;;;;;;;;;5066198;28;20044;-68
2022/07/29 10:15:21;;;;;;;14.02;2.13;;;;;;;;;;5066991;28;20402;-69
2022/07/29 10:17:47;;;;;;;42.97;4.57;;;;;;;;;;5066227;28;20039;-68
2022/07/29 10:20:15;;;;;;;33.08;3.20;;;;;;;;;;5066699;28;20064;-69
2022/07/29 10:22:42;;;;;;;123.25;8.85;;;;;;;;;;5068691;28;20045;-68
2022/07/29 10:25:19;;;;;;;57.83;4.43;;;;;;;;;;5070872;28;20052;-68
2022/07/29 10:27:46;;;;;;;14.82;1.88;;;;;;;;;;5066397;28;20075;-69
2022/07/29 10:30:14;;;;;;;37.75;2.85;;;;;;;;;;5066122;28;20115;-68
2022/07/29 10:32:59;;;;;;;265.00;16.30;;;;;;;;;;5065901;28;20057;-68
2022/07/29 10:35:33;;;;;;;63.80;4.15;;;;;;;;;;5066622;28;20052;-68
2022/07/29 10:38:10;;;;;;;51.17;4.05;;;;;;;;;;5065985;28;20124;-68
2022/07/29 10:43:29;;;;;;;21.83;2.33;;;;;;;;;;5067309;28;20530;-68
2022/07/29 10:46:00;;;;;;;31.08;3.03;;;;;;;;;;5066934;28;20441;-68
2022/07/29 10:48:32;;;;;;;28.33;2.25;;;;;;;;;;5068346;28;20475;-68
2022/07/29 10:51:04;;;;;;;54.67;4.10;;;;;;;;;;5066193;28;20112;-68
2022/07/29 10:53:48;;;;;;;40.90;3.53;;;;;;;;;;5066127;28;20162;-69
2022/07/29 10:56:23;;;;;;;53.55;4.10;;;;;;;;;;5066608;28;20049;-68
2022/07/29 10:59:09;;;;;;;37.50;2.90;;;;;;;;;;5069094;28;20037;-69
2022/07/29 11:01:37;;;;;;;29.65;2.65;;;;;;;;;;5070528;28;20051;-68
2022/07/29 11:04:05;;;;;;;20.33;2.17;;;;;;;;;;5071865;28;20556;-69
2022/07/29 11:06:52;;;;;;;27.20;2.63;;;;;;;;;;5070095;28;20068;-69
2022/07/29 11:09:22;;;;;;;37.17;3.20;;;;;;;;;;5069670;28;20037;-68
2022/07/29 11:12:00;;;;;;;111.95;8.32;;;;;;;;;;5069800;28;20036;-68
2022/07/29 11:14:46;;;;;;;28.80;2.65;;;;;;;;;;5071898;28;20044;-69
2022/07/29 11:17:13;;;;;;;28.50;2.42;;;;;;;;;;5069841;28;20048;-69
2022/07/29 11:19:42;;;;;;;37.08;3.20;;;;;;;;;;5072605;28;20056;-69
2022/07/29 11:22:31;;;;;;;48.72;3.60;;;;;;;;;;5071800;28;20596;-68
2022/07/29 11:25:13;;;;;;;54.25;3.58;;;;;;;;;;5070431;28;20037;-68
2022/07/29 11:27:42;;;;;;;103.65;7.18;;;;;;;;;;5069433;28;20051;-68
2022/07/29 11:30:11;;;;;;;113.90;7.22;;;;;;;;;;5064590;28;20072;-69
2022/07/29 11:32:40;;;;;;;40.33;2.97;;;;;;;;;;5070230;28;20052;-69
2022/07/29 11:35:18;;;;;;;33.03;2.42;;;;;;;;;;5069558;28;20049;-69
2022/07/29 11:38:22;;;;;;;33.25;2.72;;;;;;;;;;5069526;28;20073;-69
2022/07/29 11:41:07;;;;;;;61.08;4.32;;;;;;;;;;5069800;28;20482;-70
2022/07/29 11:43:45;;;;;;;42.55;2.85;;;;;;;;;;5069594;28;20094;-69
2022/07/29 11:46:16;;;;;;;75.90;5.13;;;;;;;;;;5072468;28;20055;-69
2022/07/29 11:48:50;;;;;;;29.08;2.42;;;;;;;;;;5069273;28;20037;-69
2022/07/29 11:51:17;;;;;;;40.20;2.85;;;;;;;;;;5069923;28;20066;-70
2022/07/29 11:53:58;;;;;;;99.00;7.30;;;;;;;;;;5068998;28;20060;-69
2022/07/29 11:56:31;;;;;;;31.48;2.55;;;;;;;;;;5069144;28;20524;-69
2022/07/29 11:59:06;;;;;;;37.90;2.97;;;;;;;;;;5069206;28;20037;-70
2022/07/29 12:01:34;;;;;;;48.22;3.33;;;;;;;;;;5068307;28;20056;-69
2022/07/29 12:04:07;;;;;;;23.20;2.17;;;;;;;;;;5069339;28;20098;-69
2022/07/29 12:06:34;;;;;;;32.10;2.80;;;;;;;;;;5068223;28;20055;-69
2022/07/29 12:09:06;;;;;;;9.05;1.40;;;;;;;;;;5068276;28;20102;-68
2022/07/29 12:11:39;;;;;;;30.70;2.78;;;;;;;;;;5068961;28;20426;-69
2022/07/29 12:14:06;;;;;;;22.83;2.28;;;;;;;;;;5068305;28;20080;-69
2022/07/29 12:16:36;;;;;;;36.10;3.22;;;;;;;;;;5073107;28;20132;-69
2022/07/29 12:19:03;;;;;;;27.95;2.55;;;;;;;;;;5073291;28;20133;-69
2022/07/29 12:21:48;;;;;;;23.67;2.17;;;;;;;;;;5068493;28;20055;-69
2022/07/29 12:24:22;;;;;;;35.97;2.95;;;;;;;;;;5068654;28;20453;-70
2022/07/29 12:27:00;;;;;;;59.38;4.30;;;;;;;;;;5103899;27;20150;-67
2022/07/29 12:29:27;;;;;;;43.05;3.40;;;;;;;;;;5102272;28;20035;-70
2022/07/29 12:32:00;;;;;;;;;;;;;;;;;;5107111;28;20404;-77
2022/07/29 12:34:28;;;;;;;49.67;4.15;;;;;;;;;;5105336;28;19920;-80
2022/07/29 12:36:55;;;;;;;29.27;2.33;;;;;;;;;;5104221;28;20555;-67
2022/07/29 12:39:21;;;;;;;29.48;2.70;;;;;;;;;;5108210;28;20032;-66
2022/07/29 12:41:48;;;;;;;39.95;3.55;;;;;;;;;;5106714;28;20043;-68
2022/07/29 12:44:15;;;;;;;43.25;3.67;;;;;;;;;;5104546;28;20123;-63
2022/07/29 12:46:41;;;;;;;35.70;2.72;;;;;;;;;;5108622;28;20118;-64
2022/07/29 12:49:08;;;;;;;14.13;1.55;;;;;;;;;;5109753;28;20047;-73
2022/07/29 12:51:36;;;;;;;62.65;4.60;;;;;;;;;;5102732;28;20088;-66
2022/07/29 12:54:05;;;;;;;29.33;2.63;;;;;;;;;;5103536;28;20058;-63
2022/07/29 12:56:32;;;;;;;57.00;3.97;;;;;;;;;;5103979;28;20051;-63
2022/07/29 12:59:19;;;;;;;16.33;1.73;;;;;;;;;;5104176;28;20048;-65
2022/07/29 13:01:49;;;;;;;51.92;3.92;;;;;;;;;;5106028;28;20097;-62
2022/07/29 13:04:29;;;;;;;31.55;2.80;;;;;;;;;;5093436;28;20051;-61
2022/07/29 13:07:07;;;;;;;49.78;3.45;;;;;;;;;;5103923;28;20488;-61
2022/07/29 13:09:37;;;;;;;147.75;10.02;;;;;;;;;;5103345;28;20032;-62
2022/07/29 13:12:08;;;;;;;16.83;1.92;;;;;;;;;;5103160;28;20119;-61
2022/07/29 13:14:36;;;;;;;57.28;4.57;;;;;;;;;;5103516;28;20058;-62
2022/07/29 13:17:08;;;;;;;21.15;2.17;;;;;;;;;;5096395;28;20040;-62
2022/07/29 13:19:41;;;;;;;20.33;2.15;;;;;;;;;;5104082;28;20478;-61
2022/07/29 13:22:12;;;;;;;47.88;3.80;;;;;;;;;;5105116;28;20070;-61
2022/07/29 13:25:06;;;;;;;7.07;1.05;;;;;;;;;;5101298;28;20066;-60
2022/07/29 13:27:34;;;;;;;14.52;1.60;;;;;;;;;;5101826;27;20048;-60
2022/07/29 13:30:01;;;;;;;47.15;3.60;;;;;;;;;;5102655;28;20070;-61
2022/07/29 13:32:29;;;;;;;87.55;6.18;;;;;;;;;;5102313;28;20113;-60
2022/07/29 13:34:56;;;;;;;42.53;3.55;;;;;;;;;;5106242;28;20040;-60
2022/07/29 13:37:23;;;;;;;42.65;3.55;;;;;;;;;;5099791;28;20501;-60
2022/07/29 13:39:50;;;;;;;33.50;2.75;;;;;;;;;;5088666;28;20036;-60
2022/07/29 13:42:19;;;;;;;89.38;6.25;;;;;;;;;;5089058;28;20058;-60
2022/07/29 13:44:45;;;;;;;33.22;2.67;;;;;;;;;;5088924;28;20130;-61
2022/07/29 13:47:12;;;;;;;30.75;2.60;;;;;;;;;;5089134;28;20040;-61
2022/07/29 13:49:39;;;;;;;37.97;3.25;;;;;;;;;;5093076;28;20105;-60
2022/07/29 13:52:07;;;;;;;21.23;2.30;;;;;;;;;;5090410;28;20048;-61
2022/07/29 13:54:37;;;;;;;41.28;3.08;;;;;;;;;;5088334;28;20388;-61
2022/07/29 13:57:08;;;;;;;11.40;1.60;;;;;;;;;;5088957;28;20040;-61
2022/07/29 13:59:35;;;;;;;20.27;2.45;;;;;;;;;;5088571;28;20079;-61
2022/07/29 14:02:01;;;;;;;74.72;5.53;;;;;;;;;;5088987;28;20119;-61
2022/07/29 14:04:28;;;;;;;54.58;4.28;;;;;;;;;;5092651;28;20071;-61
2022/07/29 14:06:54;;;;;;;27.25;2.45;;;;;;;;;;5088283;28;20055;-61
2022/07/29 14:09:21;;;;;;;139.85;8.60;;;;;;;;;;5088086;28;20052;-62
2022/07/29 14:11:49;;;;;;;100.25;11.30;;;;;;;;;;5088564;28;20079;-61
2022/07/29 14:14:16;;;;;;;40.65;3.20;;;;;;;;;;5088367;28;20107;-61
2022/07/29 14:16:43;;;;;;;74.47;5.03;;;;;;;;;;5091482;28;20544;-60
2022/07/29 14:19:17;;;;;;;39.42;2.90;;;;;;;;;;5092186;28;20480;-61
2022/07/29 14:21:43;;;;;;;100.50;6.30;;;;;;;;;;5087771;28;20060;-60
2022/07/29 14:24:11;;;;;;;14.13;1.50;;;;;;;;;;5087369;28;20748;-61
2022/07/29 14:26:47;;;;;;;33.60;2.72;;;;;;;;;;5087820;28;20072;-61
2022/07/29 14:29:13;;;;;;;72.75;5.50;;;;;;;;;;5088273;28;20048;-61
2022/07/29 14:31:40;;;;;;;36.70;2.97;;;;;;;;;;5091900;28;20089;-59
2022/07/29 14:34:06;;;;;;;16.45;1.45;;;;;;;;;;5089263;28;20123;-59
2022/07/29 14:36:33;;;;;;;44.03;3.28;;;;;;;;;;5087841;28;20056;-61
2022/07/29 14:39:00;;;;;;;34.83;2.83;;;;;;;;;;5087458;28;20040;-60
2022/07/29 14:41:28;;;;;;;17.08;1.83;;;;;;;;;;5088470;28;20459;-60
2022/07/29 14:43:54;;;;;;;57.53;3.88;;;;;;;;;;5089142;28;20048;-61
2022/07/29 14:46:21;;;;;;;55.95;4.03;;;;;;;;;;5091721;28;20044;-62
2022/07/29 14:48:48;;;;;;;20.15;1.83;;;;;;;;;;5087248;28;20036;-59